createdAt,value
2022-12-31T00:00:14.087Z,11.06
2022-12-31T00:02:56.497Z,11.08
2022-12-31T00:05:27.397Z,11.13
2022-12-31T00:07:57.846Z,11.16
2022-12-31T00:10:28.691Z,11.18
2022-12-31T00:12:59.995Z,11.19
2022-12-31T00:15:34.835Z,11.20
2022-12-31T00:18:08.629Z,11.22
2022-12-31T00:20:42.569Z,11.23
2022-12-31T00:23:14.560Z,11.06
2022-12-31T00:25:47.608Z,11.23
2022-12-31T00:28:19.146Z,11.31
2022-12-31T00:30:49.982Z,11.36
2022-12-31T00:33:28.768Z,11.36
2022-12-31T00:36:11.747Z,11.11
2022-12-31T00:38:44.363Z,11.25
2022-12-31T00:41:16.229Z,11.24
2022-12-31T00:43:50.398Z,11.16
2022-12-31T00:46:21.394Z,11.16
2022-12-31T00:48:55.782Z,11.18
2022-12-31T00:51:28.157Z,11.22
2022-12-31T00:54:02.176Z,11.26
2022-12-31T00:56:34.208Z,11.34
2022-12-31T00:59:04.701Z,11.40
2022-12-31T01:01:36.961Z,11.44
2022-12-31T01:04:12.247Z,11.50
2022-12-31T01:06:42.895Z,11.52
2022-12-31T01:09:14.796Z,11.50
2022-12-31T01:11:45.753Z,11.50
2022-12-31T01:14:19.633Z,11.49
2022-12-31T01:16:52.042Z,11.51
2022-12-31T01:19:27.199Z,11.51
2022-12-31T01:21:58.532Z,11.46
2022-12-31T01:24:29.563Z,11.48
2022-12-31T01:27:00.217Z,11.49
2022-12-31T01:29:37.488Z,11.47
2022-12-31T01:32:08.760Z,11.46
2022-12-31T01:34:42.016Z,11.45
2022-12-31T01:37:19.918Z,11.46
2022-12-31T01:39:50.556Z,11.46
2022-12-31T01:42:21.128Z,11.39
2022-12-31T01:44:54.863Z,11.35
2022-12-31T01:47:37.392Z,11.36
2022-12-31T01:50:17.729Z,11.39
2022-12-31T01:52:51.072Z,11.42
2022-12-31T01:55:26.313Z,11.46
2022-12-31T01:58:00.394Z,11.44
2022-12-31T02:00:31.191Z,11.48
2022-12-31T02:03:02.303Z,11.54
2022-12-31T02:05:42.086Z,11.54
2022-12-31T02:08:13.793Z,11.36
2022-12-31T02:10:44.258Z,11.51
2022-12-31T02:13:15.103Z,11.53
2022-12-31T02:15:54.660Z,11.55
2022-12-31T02:18:33.630Z,11.55
2022-12-31T02:21:35.549Z,11.52
2022-12-31T02:24:39.860Z,11.53
2022-12-31T02:27:13.473Z,11.53
2022-12-31T02:30:18.230Z,11.51
2022-12-31T02:33:02.670Z,11.51
2022-12-31T02:35:36.368Z,11.39
2022-12-31T02:38:11.875Z,11.46
2022-12-31T02:40:43.063Z,11.44
2022-12-31T02:43:13.526Z,11.40
2022-12-31T02:45:50.441Z,11.42
2022-12-31T02:48:42.005Z,11.42
2022-12-31T02:51:36.128Z,11.38
2022-12-31T02:54:20.598Z,11.41
2022-12-31T02:56:54.841Z,11.38
2022-12-31T02:59:45.008Z,11.37
2022-12-31T03:02:21.780Z,11.36
2022-12-31T03:04:54.976Z,11.33
2022-12-31T03:07:27.933Z,11.34
2022-12-31T03:09:59.296Z,11.25
2022-12-31T03:12:46.308Z,11.39
2022-12-31T03:15:23.971Z,11.35
2022-12-31T03:18:05.561Z,11.43
2022-12-31T03:20:50.680Z,11.45
2022-12-31T03:23:24.493Z,11.42
2022-12-31T03:25:53.528Z,11.40
2022-12-31T03:28:29.858Z,11.44
2022-12-31T03:31:07.052Z,11.47
2022-12-31T03:33:45.150Z,11.45
2022-12-31T03:36:17.763Z,11.45
2022-12-31T03:38:52.713Z,11.45
2022-12-31T03:41:23.546Z,11.45
2022-12-31T03:43:54.101Z,11.41
2022-12-31T03:46:24.758Z,11.42
2022-12-31T03:48:58.826Z,11.40
2022-12-31T03:51:29.431Z,11.34
2022-12-31T03:53:59.962Z,11.36
2022-12-31T03:56:30.863Z,11.38
2022-12-31T03:59:01.508Z,11.38
2022-12-31T04:01:32.094Z,11.36
2022-12-31T04:04:05.724Z,11.35
2022-12-31T04:06:36.229Z,11.36
2022-12-31T04:09:08.126Z,11.36
2022-12-31T04:11:38.610Z,11.38
2022-12-31T04:14:09.146Z,11.37
2022-12-31T04:16:39.535Z,11.35
2022-12-31T04:19:12.646Z,11.33
2022-12-31T04:21:43.284Z,11.36
2022-12-31T04:24:13.737Z,11.41
2022-12-31T04:26:44.308Z,11.44
2022-12-31T04:29:14.876Z,11.46
2022-12-31T04:31:45.452Z,11.44
2022-12-31T04:34:18.657Z,11.45
2022-12-31T04:36:49.149Z,11.28
2022-12-31T04:39:20.366Z,11.45
2022-12-31T04:41:51.064Z,11.46
2022-12-31T04:44:21.923Z,11.49
2022-12-31T04:46:52.355Z,11.49
2022-12-31T04:49:32.461Z,11.53
2022-12-31T04:52:02.974Z,11.54
2022-12-31T04:54:34.030Z,11.53
2022-12-31T04:57:04.938Z,11.59
2022-12-31T04:59:35.539Z,11.57
2022-12-31T05:02:06.264Z,11.57
2022-12-31T05:04:39.505Z,11.58
2022-12-31T05:07:10.104Z,11.58
2022-12-31T05:09:40.678Z,11.58
2022-12-31T05:12:11.753Z,11.56
2022-12-31T05:14:42.459Z,11.56
2022-12-31T05:17:12.906Z,11.52
2022-12-31T05:19:45.989Z,11.50
2022-12-31T05:22:32.288Z,11.51
2022-12-31T05:25:03.798Z,11.55
2022-12-31T05:27:37.919Z,11.56
2022-12-31T05:30:08.820Z,11.57
2022-12-31T05:32:39.227Z,11.59
2022-12-31T05:35:13.162Z,11.61
2022-12-31T05:37:43.862Z,11.65
2022-12-31T05:40:15.141Z,11.67
2022-12-31T05:42:45.683Z,11.66
2022-12-31T05:45:21.061Z,11.69
2022-12-31T05:47:54.456Z,11.69
2022-12-31T05:50:27.641Z,11.68
2022-12-31T05:52:59.942Z,11.70
2022-12-31T05:55:30.588Z,11.70
2022-12-31T05:58:01.356Z,11.70
2022-12-31T06:00:31.859Z,11.63
2022-12-31T06:03:02.936Z,11.70
2022-12-31T06:05:36.245Z,11.69
2022-12-31T06:08:07.004Z,11.67
2022-12-31T06:10:37.537Z,11.68
2022-12-31T06:13:08.282Z,11.67
2022-12-31T06:15:41.811Z,11.68
2022-12-31T06:18:12.316Z,11.69
2022-12-31T06:20:45.405Z,11.67
2022-12-31T06:23:17.893Z,11.66
2022-12-31T06:25:48.668Z,11.68
2022-12-31T06:28:20.558Z,11.69
2022-12-31T06:30:51.574Z,11.70
2022-12-31T06:33:22.069Z,11.72
2022-12-31T06:35:58.609Z,11.70
2022-12-31T06:38:30.143Z,11.68
2022-12-31T06:41:00.619Z,11.62
2022-12-31T06:43:31.100Z,11.60
2022-12-31T06:46:03.441Z,11.59
2022-12-31T06:48:33.999Z,11.56
2022-12-31T06:51:16.598Z,11.58
2022-12-31T06:53:48.461Z,11.59
2022-12-31T06:56:23.359Z,11.59
2022-12-31T06:58:57.766Z,11.60
2022-12-31T07:01:37.878Z,11.58
2022-12-31T07:04:45.814Z,11.57
2022-12-31T07:07:25.954Z,11.49
2022-12-31T07:10:10.487Z,11.47
2022-12-31T07:12:53.965Z,11.45
2022-12-31T07:15:51.878Z,11.49
2022-12-31T07:18:28.653Z,11.52
2022-12-31T07:20:59.969Z,11.49
2022-12-31T07:23:34.668Z,11.52
2022-12-31T07:26:10.237Z,11.45
2022-12-31T07:28:52.950Z,11.48
2022-12-31T07:31:37.639Z,11.51
2022-12-31T07:34:13.428Z,11.52
2022-12-31T07:37:00.374Z,11.55
2022-12-31T07:39:44.553Z,11.59
2022-12-31T07:42:23.088Z,11.58
2022-12-31T07:45:12.662Z,11.57
2022-12-31T07:47:45.603Z,11.59
2022-12-31T07:50:18.704Z,11.61
2022-12-31T07:52:50.667Z,11.59
2022-12-31T07:55:26.111Z,11.61
2022-12-31T07:58:04.695Z,11.62
2022-12-31T08:00:35.939Z,11.62
2022-12-31T08:03:20.122Z,11.64
2022-12-31T08:05:57.135Z,11.67
2022-12-31T08:08:39.427Z,11.68
2022-12-31T08:11:20.436Z,11.69
2022-12-31T08:13:52.864Z,11.68
2022-12-31T08:16:24.124Z,11.71
2022-12-31T08:18:55.378Z,11.72
2022-12-31T08:21:40.145Z,11.73
2022-12-31T08:24:21.069Z,11.70
2022-12-31T08:27:03.931Z,11.70
2022-12-31T08:29:42.484Z,11.63
2022-12-31T08:32:19.765Z,11.57
2022-12-31T08:34:58.700Z,11.65
2022-12-31T08:37:37.387Z,11.64
2022-12-31T08:40:22.509Z,11.66
2022-12-31T08:43:13.224Z,11.65
2022-12-31T08:45:49.492Z,11.62
2022-12-31T08:48:29.428Z,11.60
2022-12-31T08:51:00.982Z,11.63
2022-12-31T08:53:35.062Z,11.64
2022-12-31T08:56:11.686Z,11.72
2022-12-31T08:58:54.397Z,11.71
2022-12-31T09:01:31.079Z,11.84
2022-12-31T09:04:15.015Z,11.85
2022-12-31T09:06:53.336Z,11.83
2022-12-31T09:09:34.000Z,11.84
2022-12-31T09:12:13.111Z,11.87
2022-12-31T09:14:50.090Z,11.83
2022-12-31T09:17:39.393Z,11.82
2022-12-31T09:20:18.321Z,11.98
2022-12-31T09:22:51.309Z,12.05
2022-12-31T09:25:24.517Z,12.05
2022-12-31T09:28:07.922Z,12.10
2022-12-31T09:30:46.858Z,12.20
2022-12-31T09:33:25.055Z,12.28
2022-12-31T09:35:59.658Z,12.40
2022-12-31T09:38:36.229Z,12.39
2022-12-31T09:41:17.458Z,12.39
2022-12-31T09:44:19.128Z,12.46
2022-12-31T09:47:36.845Z,12.61
2022-12-31T09:50:30.412Z,12.71
2022-12-31T09:53:31.570Z,12.81
2022-12-31T09:56:08.026Z,12.93
2022-12-31T09:58:47.708Z,13.18
2022-12-31T10:01:32.553Z,13.46
2022-12-31T10:04:32.026Z,13.67
2022-12-31T10:07:31.194Z,13.88
2022-12-31T10:10:09.479Z,14.05
2022-12-31T10:13:04.734Z,14.15
2022-12-31T10:16:04.599Z,14.35
2022-12-31T10:18:47.166Z,14.44
2022-12-31T10:21:37.842Z,14.58
2022-12-31T10:24:26.912Z,14.68
2022-12-31T10:27:22.093Z,14.79
2022-12-31T10:30:02.060Z,14.97
2022-12-31T10:32:45.107Z,15.08
2022-12-31T10:35:31.175Z,15.16
2022-12-31T10:38:17.509Z,15.18
2022-12-31T10:41:43.867Z,15.24
2022-12-31T10:44:47.156Z,15.34
2022-12-31T10:48:02.769Z,15.41
2022-12-31T10:51:02.616Z,15.51
2022-12-31T10:53:58.883Z,15.53
2022-12-31T10:57:11.282Z,15.63
2022-12-31T11:00:19.962Z,15.70
2022-12-31T11:03:34.593Z,15.73
2022-12-31T11:06:35.583Z,15.77
2022-12-31T11:09:48.743Z,15.81
2022-12-31T11:12:37.675Z,15.90
2022-12-31T11:15:30.714Z,15.98
2022-12-31T11:18:13.394Z,16.02
2022-12-31T11:21:00.301Z,16.12
2022-12-31T11:23:43.943Z,16.13
2022-12-31T11:26:27.774Z,16.05
2022-12-31T11:29:14.690Z,15.70
2022-12-31T11:31:58.390Z,15.19
2022-12-31T11:35:00.871Z,14.73
2022-12-31T11:37:37.956Z,14.47
2022-12-31T11:40:24.132Z,14.33
2022-12-31T11:43:01.392Z,14.25
2022-12-31T11:46:04.833Z,14.19
2022-12-31T11:48:39.551Z,14.20
2022-12-31T11:51:28.779Z,14.21
2022-12-31T11:54:36.581Z,14.24
2022-12-31T11:57:19.485Z,14.28
2022-12-31T11:59:56.480Z,14.34
2022-12-31T12:02:30.543Z,14.37
2022-12-31T12:05:08.585Z,14.36
2022-12-31T12:07:41.499Z,14.34
2022-12-31T12:10:24.059Z,14.35
2022-12-31T12:12:57.699Z,14.36
2022-12-31T12:15:35.104Z,14.39
2022-12-31T12:18:11.676Z,14.45
2022-12-31T12:20:47.026Z,14.50
2022-12-31T12:23:20.516Z,14.56
2022-12-31T12:25:51.044Z,14.65
2022-12-31T12:28:26.998Z,14.72
2022-12-31T12:31:03.616Z,14.80
2022-12-31T12:33:45.538Z,14.87
2022-12-31T12:36:18.712Z,14.93
2022-12-31T12:38:49.459Z,15.02
2022-12-31T12:41:27.726Z,15.06
2022-12-31T12:44:07.282Z,15.10
2022-12-31T12:46:48.417Z,15.17
2022-12-31T12:52:37.267Z,15.24
2022-12-31T12:55:22.728Z,15.25
2022-12-31T12:58:03.716Z,15.25
2022-12-31T13:00:40.717Z,15.34
2022-12-31T13:03:32.480Z,15.39
2022-12-31T13:06:22.521Z,15.43
2022-12-31T13:09:10.349Z,15.48
2022-12-31T13:11:49.300Z,15.54
2022-12-31T13:14:30.751Z,15.65
2022-12-31T13:17:11.953Z,15.71
2022-12-31T13:19:51.861Z,15.74
2022-12-31T13:22:29.137Z,15.62
2022-12-31T13:25:06.438Z,15.71
2022-12-31T13:27:41.501Z,15.80
2022-12-31T13:30:18.471Z,15.80
2022-12-31T13:32:53.120Z,15.84
2022-12-31T13:35:30.109Z,15.90
2022-12-31T13:38:06.471Z,15.97
2022-12-31T13:40:49.134Z,16.04
2022-12-31T13:43:27.402Z,15.88
2022-12-31T13:46:08.812Z,16.12
2022-12-31T13:48:45.597Z,16.17
2022-12-31T13:51:27.434Z,16.17
2022-12-31T13:54:05.000Z,16.14
2022-12-31T13:56:44.314Z,16.15
2022-12-31T13:59:20.316Z,16.18
2022-12-31T14:01:55.785Z,16.22
2022-12-31T14:04:36.544Z,16.25
2022-12-31T14:07:16.233Z,16.22
2022-12-31T14:09:46.956Z,16.12
2022-12-31T14:12:31.030Z,16.18
2022-12-31T14:15:10.469Z,16.26
2022-12-31T14:17:48.570Z,16.29
2022-12-31T14:20:31.300Z,16.26
2022-12-31T14:23:15.506Z,16.26
2022-12-31T14:25:52.184Z,16.26
2022-12-31T14:28:28.623Z,16.31
2022-12-31T14:31:12.117Z,16.19
2022-12-31T14:33:54.213Z,16.27
2022-12-31T14:36:46.579Z,16.28
2022-12-31T14:39:40.280Z,16.21
2022-12-31T14:42:25.627Z,16.29
2022-12-31T14:45:08.563Z,16.34
2022-12-31T14:47:55.104Z,16.30
2022-12-31T14:50:28.928Z,16.29
2022-12-31T14:53:11.084Z,16.27
2022-12-31T14:55:44.805Z,16.28
2022-12-31T14:58:28.159Z,16.29
2022-12-31T15:01:01.980Z,16.28
2022-12-31T15:03:44.988Z,16.29
2022-12-31T15:06:36.481Z,16.27
2022-12-31T15:09:22.576Z,16.21
2022-12-31T15:12:10.470Z,16.18
2022-12-31T15:14:59.500Z,16.12
2022-12-31T15:17:40.342Z,16.07
2022-12-31T15:20:30.716Z,16.08
2022-12-31T15:23:01.706Z,16.04
2022-12-31T15:25:40.421Z,16.01
2022-12-31T15:28:32.753Z,15.97
2022-12-31T15:31:15.933Z,15.94
2022-12-31T15:33:59.590Z,16.01
2022-12-31T15:36:32.623Z,16.04
2022-12-31T15:39:38.785Z,16.03
2022-12-31T15:42:49.731Z,16.02
2022-12-31T15:45:30.356Z,16.07
2022-12-31T15:48:03.674Z,16.03
2022-12-31T15:50:34.745Z,16.04
2022-12-31T15:53:09.590Z,16.05
2022-12-31T15:55:45.713Z,16.03
2022-12-31T15:58:20.674Z,15.99
2022-12-31T16:01:03.808Z,15.97
2022-12-31T16:03:35.267Z,15.97
2022-12-31T16:06:07.538Z,15.96
2022-12-31T16:08:38.774Z,15.99
2022-12-31T16:11:11.577Z,16.04
2022-12-31T16:13:44.890Z,16.01
2022-12-31T16:16:26.152Z,15.96
2022-12-31T16:18:57.819Z,15.94
2022-12-31T16:21:32.724Z,15.93
2022-12-31T16:24:05.711Z,15.92
2022-12-31T16:26:42.413Z,15.87
2022-12-31T16:29:17.557Z,15.90
2022-12-31T16:31:53.259Z,15.91
2022-12-31T16:34:25.277Z,15.95
2022-12-31T16:37:04.356Z,15.96
2022-12-31T16:39:36.663Z,15.97
2022-12-31T16:42:17.798Z,16.01
2022-12-31T16:44:49.409Z,15.94
2022-12-31T16:47:25.502Z,15.92
2022-12-31T16:50:02.695Z,15.89
2022-12-31T16:52:36.794Z,15.89
2022-12-31T16:55:10.974Z,15.75
2022-12-31T16:57:41.950Z,15.96
2022-12-31T17:00:20.866Z,15.94
2022-12-31T17:03:05.001Z,15.88
2022-12-31T17:05:37.766Z,15.83
2022-12-31T17:08:26.445Z,15.80
2022-12-31T17:10:58.227Z,15.77
2022-12-31T17:13:32.706Z,15.80
2022-12-31T17:16:10.538Z,15.81
2022-12-31T17:18:47.925Z,15.80
2022-12-31T17:21:19.766Z,15.86
2022-12-31T17:23:57.524Z,15.89
2022-12-31T17:26:31.868Z,15.82
2022-12-31T17:29:06.024Z,15.67
2022-12-31T17:31:39.515Z,15.71
2022-12-31T17:34:26.690Z,15.70
2022-12-31T17:37:18.958Z,15.66
2022-12-31T17:39:52.165Z,15.67
2022-12-31T17:42:33.935Z,15.63
2022-12-31T17:45:10.951Z,15.63
2022-12-31T17:47:44.251Z,15.64
2022-12-31T17:50:28.198Z,15.62
2022-12-31T17:53:02.510Z,15.59
2022-12-31T17:55:33.758Z,15.53
2022-12-31T17:58:08.102Z,15.61
2022-12-31T18:00:40.170Z,15.56
2022-12-31T18:03:10.697Z,15.57
2022-12-31T18:05:44.261Z,15.61
2022-12-31T18:08:14.827Z,15.60
2022-12-31T18:10:46.820Z,15.68
2022-12-31T18:13:20.622Z,15.74
2022-12-31T18:15:58.628Z,15.75
2022-12-31T18:18:33.006Z,15.77
2022-12-31T18:21:09.870Z,15.77
2022-12-31T18:23:46.239Z,15.82
2022-12-31T18:26:18.877Z,15.90
2022-12-31T18:28:49.717Z,15.89
2022-12-31T18:31:24.397Z,15.89
2022-12-31T18:33:56.773Z,15.88
2022-12-31T18:36:32.383Z,15.77
2022-12-31T18:39:04.731Z,15.93
2022-12-31T18:41:42.441Z,15.90
2022-12-31T18:44:15.320Z,15.96
2022-12-31T18:46:54.563Z,16.01
2022-12-31T18:49:25.776Z,16.01
2022-12-31T18:51:59.329Z,15.99
2022-12-31T18:54:29.731Z,16.02
2022-12-31T18:57:00.367Z,16.02
2022-12-31T18:59:32.725Z,16.00
2022-12-31T19:02:03.567Z,15.99
2022-12-31T19:04:34.276Z,15.95
2022-12-31T19:07:08.763Z,15.84
2022-12-31T19:09:48.323Z,15.93
2022-12-31T19:12:21.719Z,16.01
2022-12-31T19:14:52.217Z,15.95
2022-12-31T19:17:22.787Z,15.95
2022-12-31T19:19:53.311Z,16.07
2022-12-31T19:22:27.091Z,16.06
2022-12-31T19:24:57.545Z,15.92
2022-12-31T19:27:28.201Z,16.02
2022-12-31T19:30:00.694Z,15.99
2022-12-31T19:32:31.899Z,16.01
2022-12-31T19:35:02.471Z,16.01
2022-12-31T19:37:35.886Z,16.04
2022-12-31T19:40:06.988Z,16.03
2022-12-31T19:42:38.169Z,16.04
2022-12-31T19:45:19.352Z,16.07
2022-12-31T19:47:54.017Z,15.90
2022-12-31T19:50:29.114Z,15.99
2022-12-31T19:53:04.777Z,16.03
2022-12-31T19:55:35.977Z,16.01
2022-12-31T19:58:06.657Z,15.95
2022-12-31T20:00:37.556Z,15.90
2022-12-31T20:03:08.393Z,15.84
2022-12-31T20:05:39.102Z,15.79
2022-12-31T20:08:13.349Z,15.81
2022-12-31T20:10:47.306Z,15.85
2022-12-31T20:13:18.583Z,15.93
2022-12-31T20:15:49.659Z,15.94
2022-12-31T20:18:21.243Z,15.95
2022-12-31T20:20:55.873Z,15.93
2022-12-31T20:23:29.318Z,15.92
2022-12-31T20:26:00.967Z,16.00
2022-12-31T20:28:31.615Z,15.96
2022-12-31T20:31:07.061Z,15.97
2022-12-31T20:33:38.043Z,15.97
2022-12-31T20:36:10.689Z,15.94
2022-12-31T20:38:44.012Z,15.89
2022-12-31T20:41:16.130Z,15.76
2022-12-31T20:43:47.885Z,15.81
2022-12-31T20:46:20.752Z,15.77
2022-12-31T20:48:53.088Z,15.81
2022-12-31T20:51:24.776Z,15.80
2022-12-31T20:54:00.650Z,15.77
2022-12-31T20:56:32.855Z,15.68
2022-12-31T20:59:04.111Z,15.66
2022-12-31T21:01:55.570Z,15.70
2022-12-31T21:04:26.217Z,15.69
2022-12-31T21:06:56.821Z,15.71
2022-12-31T21:09:32.382Z,15.64
2022-12-31T21:12:17.304Z,15.63
2022-12-31T21:14:47.848Z,15.66
2022-12-31T21:17:18.466Z,15.62
2022-12-31T21:19:49.688Z,15.62
2022-12-31T21:22:24.168Z,15.71
2022-12-31T21:24:57.628Z,15.72
2022-12-31T21:27:28.188Z,15.78
2022-12-31T21:30:18.099Z,15.77
2022-12-31T21:32:49.491Z,15.86
2022-12-31T21:38:11.681Z,15.92
2022-12-31T21:40:50.065Z,15.73
2022-12-31T21:43:21.308Z,15.68
2022-12-31T21:46:05.526Z,15.86
2022-12-31T21:48:37.073Z,15.85
2022-12-31T21:51:11.639Z,15.88
2022-12-31T21:53:42.020Z,15.93
2022-12-31T21:56:14.727Z,16.00
2022-12-31T21:59:08.723Z,16.08
2022-12-31T22:01:52.312Z,16.16
2022-12-31T22:05:00.398Z,16.21
2022-12-31T22:07:13.822Z,16.29
2022-12-31T22:09:44.403Z,16.33
2022-12-31T22:12:17.617Z,16.33
2022-12-31T22:15:14.884Z,16.30
2022-12-31T22:17:39.042Z,16.33
2022-12-31T22:20:28.588Z,16.16
2022-12-31T22:22:59.623Z,16.27
2022-12-31T22:25:30.340Z,16.25
2022-12-31T22:31:00.273Z,16.33
2022-12-31T22:33:33.759Z,16.35
2022-12-31T22:36:06.041Z,16.33
2022-12-31T22:38:36.921Z,16.34
2022-12-31T22:41:10.609Z,16.37
2022-12-31T22:43:46.255Z,16.39
2022-12-31T22:46:19.139Z,16.36
2022-12-31T22:48:50.571Z,16.36
2022-12-31T22:51:22.064Z,16.38
2022-12-31T22:53:52.641Z,16.46
2022-12-31T22:56:23.784Z,16.43
2022-12-31T22:58:57.069Z,16.41
2022-12-31T23:01:28.188Z,16.39
2022-12-31T23:03:59.314Z,16.70
2022-12-31T23:06:30.158Z,16.85
2022-12-31T23:09:14.141Z,16.73
2022-12-31T23:11:45.780Z,16.62
2022-12-31T23:14:32.719Z,16.57
2022-12-31T23:17:29.405Z,16.51
2022-12-31T23:20:15.753Z,16.51
2022-12-31T23:22:58.571Z,16.44
2022-12-31T23:25:29.067Z,16.42
2022-12-31T23:27:59.660Z,16.39
2022-12-31T23:30:32.878Z,16.34
2022-12-31T23:33:03.582Z,16.30
2022-12-31T23:35:34.126Z,16.20
2022-12-31T23:38:04.882Z,16.33
2022-12-31T23:40:36.997Z,16.32
2022-12-31T23:43:09.182Z,16.34
2022-12-31T23:45:42.451Z,16.34
2022-12-31T23:48:13.011Z,16.37
2022-12-31T23:50:47.795Z,16.39
2022-12-31T23:53:27.180Z,16.45
2022-12-31T23:55:58.922Z,16.44
2022-12-31T23:58:29.715Z,16.46
